Aviation Digital Data Service (ADDS)

Output produced by METARs form (0938 UTC 19 November 2018)
found at http://www.aviationweather.gov/metar/data/
 
RJAA 190930Z 02004KT 350V060 9999 FEW015 BKN150 14/11 Q1013 NOSIG RMK 1CU015 5AC150 A2991
RJAA 190900Z 00000KT 9999 -RA FEW015 SCT060 BKN080 13/12 Q1012 NOSIG RMK 1CU015 3SC060 7AC080 A2991
TAF AMD RJAA 190921Z 1909/2012 36006KT 9999 FEW030 SCT045 
     BECMG 2006/2009 10006KT